sensor_id;sensor_type;location;lat;lon;timestamp;temperature;humidity
17988;DHT22;9119;50.932;5.342;2023-01-28T00:01:09;4.60;99.90
17988;DHT22;9119;50.932;5.342;2023-01-28T00:03:35;4.90;99.90
17988;DHT22;9119;50.932;5.342;2023-01-28T00:06:11;4.80;99.90
17988;DHT22;9119;50.932;5.342;2023-01-28T00:08:37;4.90;99.90
17988;DHT22;9119;50.932;5.342;2023-01-28T00:11:05;4.90;99.90
17988;DHT22;9119;50.932;5.342;2023-01-28T00:13:32;4.80;99.90
17988;DHT22;9119;50.932;5.342;2023-01-28T00:16:00;4.70;99.90
17988;DHT22;9119;50.932;5.342;2023-01-28T00:18:30;4.60;99.90
17988;DHT22;9119;50.932;5.342;2023-01-28T00:21:01;4.70;99.90
17988;DHT22;9119;50.932;5.342;2023-01-28T00:23:30;5.00;99.90
17988;DHT22;9119;50.932;5.342;2023-01-28T00:26:00;4.90;99.90
17988;DHT22;9119;50.932;5.342;2023-01-28T00:28:26;4.70;99.90
17988;DHT22;9119;50.932;5.342;2023-01-28T00:30:52;4.70;99.90
17988;DHT22;9119;50.932;5.342;2023-01-28T00:33:18;4.80;99.90
17988;DHT22;9119;50.932;5.342;2023-01-28T00:35:43;4.80;99.90
17988;DHT22;9119;50.932;5.342;2023-01-28T00:38:09;5.00;99.90
17988;DHT22;9119;50.932;5.342;2023-01-28T00:40:38;4.70;99.90
17988;DHT22;9119;50.932;5.342;2023-01-28T00:43:04;4.60;99.90
17988;DHT22;9119;50.932;5.342;2023-01-28T00:45:29;4.50;99.90
17988;DHT22;9119;50.932;5.342;2023-01-28T00:47:55;4.50;99.90
17988;DHT22;9119;50.932;5.342;2023-01-28T00:50:21;4.60;99.90
17988;DHT22;9119;50.932;5.342;2023-01-28T00:52:47;4.60;99.90
17988;DHT22;9119;50.932;5.342;2023-01-28T00:55:13;4.70;99.90
17988;DHT22;9119;50.932;5.342;2023-01-28T00:57:39;4.70;99.90
17988;DHT22;9119;50.932;5.342;2023-01-28T01:00:05;4.70;99.90
17988;DHT22;9119;50.932;5.342;2023-01-28T01:02:31;4.80;99.90
17988;DHT22;9119;50.932;5.342;2023-01-28T01:04:57;4.70;99.90
17988;DHT22;9119;50.932;5.342;2023-01-28T01:07:24;4.90;99.90
17988;DHT22;9119;50.932;5.342;2023-01-28T01:10:00;4.70;99.90
17988;DHT22;9119;50.932;5.342;2023-01-28T01:12:27;4.70;99.90
17988;DHT22;9119;50.932;5.342;2023-01-28T01:14:53;4.70;99.90
17988;DHT22;9119;50.932;5.342;2023-01-28T01:17:18;4.70;99.90
17988;DHT22;9119;50.932;5.342;2023-01-28T01:19:45;4.70;99.90
17988;DHT22;9119;50.932;5.342;2023-01-28T01:22:11;4.60;99.90
17988;DHT22;9119;50.932;5.342;2023-01-28T01:24:36;4.90;99.90
17988;DHT22;9119;50.932;5.342;2023-01-28T01:27:02;4.80;99.90
17988;DHT22;9119;50.932;5.342;2023-01-28T01:29:30;4.90;99.90
17988;DHT22;9119;50.932;5.342;2023-01-28T01:31:56;4.80;99.90
17988;DHT22;9119;50.932;5.342;2023-01-28T01:34:22;4.80;99.90
17988;DHT22;9119;50.932;5.342;2023-01-28T01:36:48;4.60;99.90
17988;DHT22;9119;50.932;5.342;2023-01-28T01:39:13;4.50;99.90
17988;DHT22;9119;50.932;5.342;2023-01-28T01:41:42;4.30;99.90
17988;DHT22;9119;50.932;5.342;2023-01-28T01:47:13;4.20;99.90
17988;DHT22;9119;50.932;5.342;2023-01-28T01:49:39;4.20;99.90
17988;DHT22;9119;50.932;5.342;2023-01-28T01:52:10;4.40;99.90
17988;DHT22;9119;50.932;5.342;2023-01-28T01:54:39;4.30;99.90
17988;DHT22;9119;50.932;5.342;2023-01-28T01:57:08;4.30;99.90
17988;DHT22;9119;50.932;5.342;2023-01-28T01:59:36;4.50;99.90
17988;DHT22;9119;50.932;5.342;2023-01-28T02:02:04;4.30;99.90
17988;DHT22;9119;50.932;5.342;2023-01-28T02:04:41;4.50;99.90
17988;DHT22;9119;50.932;5.342;2023-01-28T02:07:13;4.50;99.90
17988;DHT22;9119;50.932;5.342;2023-01-28T02:09:40;4.30;99.90
17988;DHT22;9119;50.932;5.342;2023-01-28T02:12:15;4.30;99.90
17988;DHT22;9119;50.932;5.342;2023-01-28T02:17:31;4.50;99.90
17988;DHT22;9119;50.932;5.342;2023-01-28T02:20:05;4.40;99.90
17988;DHT22;9119;50.932;5.342;2023-01-28T02:30:21;4.30;99.90
17988;DHT22;9119;50.932;5.342;2023-01-28T02:32:56;4.10;99.90
17988;DHT22;9119;50.932;5.342;2023-01-28T02:35:47;4.20;99.90
17988;DHT22;9119;50.932;5.342;2023-01-28T02:38:27;4.20;99.90
17988;DHT22;9119;50.932;5.342;2023-01-28T02:41:00;4.20;99.90
17988;DHT22;9119;50.932;5.342;2023-01-28T02:43:40;4.20;99.90
17988;DHT22;9119;50.932;5.342;2023-01-28T02:46:34;4.20;99.90
17988;DHT22;9119;50.932;5.342;2023-01-28T02:55:00;3.90;99.90
17988;DHT22;9119;50.932;5.342;2023-01-28T02:57:42;3.80;99.90
17988;DHT22;9119;50.932;5.342;2023-01-28T03:02:57;3.90;99.90
17988;DHT22;9119;50.932;5.342;2023-01-28T03:05:50;3.90;99.90
17988;DHT22;9119;50.932;5.342;2023-01-28T03:08:35;3.80;99.90
17988;DHT22;9119;50.932;5.342;2023-01-28T03:11:21;3.80;99.90
17988;DHT22;9119;50.932;5.342;2023-01-28T03:14:07;3.80;99.90
17988;DHT22;9119;50.932;5.342;2023-01-28T03:16:53;3.70;99.90
17988;DHT22;9119;50.932;5.342;2023-01-28T03:19:38;3.80;99.90
17988;DHT22;9119;50.932;5.342;2023-01-28T03:22:23;3.80;99.90
17988;DHT22;9119;50.932;5.342;2023-01-28T03:25:10;3.80;99.90
17988;DHT22;9119;50.932;5.342;2023-01-28T03:28:02;3.80;99.90
17988;DHT22;9119;50.932;5.342;2023-01-28T03:31:06;3.80;99.90
17988;DHT22;9119;50.932;5.342;2023-01-28T03:33:53;3.90;99.90
17988;DHT22;9119;50.932;5.342;2023-01-28T03:36:38;3.90;99.90
17988;DHT22;9119;50.932;5.342;2023-01-28T03:39:22;3.70;99.90
17988;DHT22;9119;50.932;5.342;2023-01-28T03:44:27;3.60;99.90
17988;DHT22;9119;50.932;5.342;2023-01-28T03:47:12;3.60;99.90
17988;DHT22;9119;50.932;5.342;2023-01-28T03:49:41;3.70;99.90
17988;DHT22;9119;50.932;5.342;2023-01-28T03:52:10;3.80;99.90
17988;DHT22;9119;50.932;5.342;2023-01-28T03:54:36;3.60;99.90
17988;DHT22;9119;50.932;5.342;2023-01-28T03:57:02;3.60;99.90
17988;DHT22;9119;50.932;5.342;2023-01-28T03:59:28;3.60;99.90
17988;DHT22;9119;50.932;5.342;2023-01-28T04:01:54;3.50;99.90
17988;DHT22;9119;50.932;5.342;2023-01-28T04:04:20;3.50;99.90
17988;DHT22;9119;50.932;5.342;2023-01-28T04:06:53;3.40;99.90
17988;DHT22;9119;50.932;5.342;2023-01-28T04:09:20;3.50;99.90
17988;DHT22;9119;50.932;5.342;2023-01-28T04:11:46;3.40;99.90
17988;DHT22;9119;50.932;5.342;2023-01-28T04:14:12;3.40;99.90
17988;DHT22;9119;50.932;5.342;2023-01-28T04:16:41;3.40;99.90
17988;DHT22;9119;50.932;5.342;2023-01-28T04:19:08;3.50;99.90
17988;DHT22;9119;50.932;5.342;2023-01-28T04:21:34;3.50;99.90
17988;DHT22;9119;50.932;5.342;2023-01-28T04:23:59;3.50;99.90
17988;DHT22;9119;50.932;5.342;2023-01-28T04:26:27;3.40;99.90
17988;DHT22;9119;50.932;5.342;2023-01-28T04:28:53;3.40;99.90
17988;DHT22;9119;50.932;5.342;2023-01-28T04:31:18;3.30;99.90
17988;DHT22;9119;50.932;5.342;2023-01-28T04:33:44;3.50;99.90
17988;DHT22;9119;50.932;5.342;2023-01-28T04:36:10;3.50;99.90
17988;DHT22;9119;50.932;5.342;2023-01-28T04:38:35;3.50;99.90
17988;DHT22;9119;50.932;5.342;2023-01-28T04:41:01;3.60;99.90
17988;DHT22;9119;50.932;5.342;2023-01-28T04:43:27;3.50;99.90
17988;DHT22;9119;50.932;5.342;2023-01-28T04:45:52;3.70;99.90
17988;DHT22;9119;50.932;5.342;2023-01-28T04:48:18;3.60;99.90
17988;DHT22;9119;50.932;5.342;2023-01-28T04:50:44;3.70;99.90
17988;DHT22;9119;50.932;5.342;2023-01-28T04:53:10;3.80;99.90
17988;DHT22;9119;50.932;5.342;2023-01-28T04:55:36;3.70;99.90
17988;DHT22;9119;50.932;5.342;2023-01-28T04:58:02;3.80;99.90
17988;DHT22;9119;50.932;5.342;2023-01-28T05:00:28;3.70;99.90
17988;DHT22;9119;50.932;5.342;2023-01-28T05:02:54;3.60;99.90
17988;DHT22;9119;50.932;5.342;2023-01-28T05:05:20;3.60;99.90
17988;DHT22;9119;50.932;5.342;2023-01-28T05:07:53;3.30;99.90
17988;DHT22;9119;50.932;5.342;2023-01-28T05:10:20;3.30;99.90
17988;DHT22;9119;50.932;5.342;2023-01-28T05:12:47;3.50;99.90
17988;DHT22;9119;50.932;5.342;2023-01-28T05:15:17;3.50;99.90
17988;DHT22;9119;50.932;5.342;2023-01-28T05:17:44;3.60;99.90
17988;DHT22;9119;50.932;5.342;2023-01-28T05:20:12;3.60;99.90
17988;DHT22;9119;50.932;5.342;2023-01-28T05:22:38;3.60;99.90
17988;DHT22;9119;50.932;5.342;2023-01-28T05:25:05;3.60;99.90
17988;DHT22;9119;50.932;5.342;2023-01-28T05:27:32;3.50;99.90
17988;DHT22;9119;50.932;5.342;2023-01-28T05:29:58;3.60;99.90
17988;DHT22;9119;50.932;5.342;2023-01-28T05:32:24;3.60;99.90
17988;DHT22;9119;50.932;5.342;2023-01-28T05:34:50;3.60;99.90
17988;DHT22;9119;50.932;5.342;2023-01-28T05:37:16;3.40;99.90
17988;DHT22;9119;50.932;5.342;2023-01-28T05:39:41;3.40;99.90
17988;DHT22;9119;50.932;5.342;2023-01-28T05:42:07;3.40;99.90
17988;DHT22;9119;50.932;5.342;2023-01-28T05:44:33;3.40;99.90
17988;DHT22;9119;50.932;5.342;2023-01-28T05:46:58;3.30;99.90
17988;DHT22;9119;50.932;5.342;2023-01-28T05:49:24;3.30;99.90
17988;DHT22;9119;50.932;5.342;2023-01-28T05:51:51;3.20;99.90
17988;DHT22;9119;50.932;5.342;2023-01-28T05:54:20;3.20;99.90
17988;DHT22;9119;50.932;5.342;2023-01-28T05:56:46;3.40;99.90
17988;DHT22;9119;50.932;5.342;2023-01-28T05:59:12;3.40;99.90
17988;DHT22;9119;50.932;5.342;2023-01-28T06:01:38;3.40;99.90
17988;DHT22;9119;50.932;5.342;2023-01-28T06:04:04;3.20;99.90
17988;DHT22;9119;50.932;5.342;2023-01-28T06:06:29;3.20;99.90
17988;DHT22;9119;50.932;5.342;2023-01-28T06:08:55;3.40;99.90
17988;DHT22;9119;50.932;5.342;2023-01-28T06:11:21;3.20;99.90
17988;DHT22;9119;50.932;5.342;2023-01-28T06:13:47;3.20;99.90
17988;DHT22;9119;50.932;5.342;2023-01-28T06:16:12;3.30;99.90
17988;DHT22;9119;50.932;5.342;2023-01-28T06:18:38;3.30;99.90
17988;DHT22;9119;50.932;5.342;2023-01-28T06:21:05;3.30;99.90
17988;DHT22;9119;50.932;5.342;2023-01-28T06:23:31;3.40;99.90
17988;DHT22;9119;50.932;5.342;2023-01-28T06:25:57;3.30;99.90
17988;DHT22;9119;50.932;5.342;2023-01-28T06:28:23;3.30;99.90
17988;DHT22;9119;50.932;5.342;2023-01-28T06:30:53;3.30;99.90
17988;DHT22;9119;50.932;5.342;2023-01-28T06:33:19;3.20;99.90
17988;DHT22;9119;50.932;5.342;2023-01-28T06:35:45;3.20;99.90
17988;DHT22;9119;50.932;5.342;2023-01-28T06:38:12;3.20;99.90
17988;DHT22;9119;50.932;5.342;2023-01-28T06:40:38;3.10;99.90
17988;DHT22;9119;50.932;5.342;2023-01-28T06:43:04;3.20;99.90
17988;DHT22;9119;50.932;5.342;2023-01-28T06:45:31;3.20;99.90
17988;DHT22;9119;50.932;5.342;2023-01-28T06:47:56;3.20;99.90
17988;DHT22;9119;50.932;5.342;2023-01-28T06:50:22;3.10;99.90
17988;DHT22;9119;50.932;5.342;2023-01-28T06:52:48;3.10;99.90
17988;DHT22;9119;50.932;5.342;2023-01-28T06:55:13;3.00;99.90
17988;DHT22;9119;50.932;5.342;2023-01-28T06:57:40;3.00;99.90
17988;DHT22;9119;50.932;5.342;2023-01-28T07:00:08;3.00;99.90
17988;DHT22;9119;50.932;5.342;2023-01-28T07:02:35;3.00;99.90
17988;DHT22;9119;50.932;5.342;2023-01-28T07:05:02;3.10;99.90
17988;DHT22;9119;50.932;5.342;2023-01-28T07:07:27;3.10;99.90
17988;DHT22;9119;50.932;5.342;2023-01-28T07:09:53;3.20;99.90
17988;DHT22;9119;50.932;5.342;2023-01-28T07:12:19;3.20;99.90
17988;DHT22;9119;50.932;5.342;2023-01-28T07:14:45;3.00;99.90
17988;DHT22;9119;50.932;5.342;2023-01-28T07:17:10;3.10;99.90
17988;DHT22;9119;50.932;5.342;2023-01-28T07:19:36;3.10;99.90
17988;DHT22;9119;50.932;5.342;2023-01-28T07:22:02;3.00;99.90
17988;DHT22;9119;50.932;5.342;2023-01-28T07:24:28;2.90;99.90
17988;DHT22;9119;50.932;5.342;2023-01-28T07:26:54;2.80;99.90
17988;DHT22;9119;50.932;5.342;2023-01-28T07:29:20;3.10;99.90
17988;DHT22;9119;50.932;5.342;2023-01-28T07:31:46;3.30;99.90
17988;DHT22;9119;50.932;5.342;2023-01-28T07:34:11;3.20;99.90
17988;DHT22;9119;50.932;5.342;2023-01-28T07:36:37;3.40;99.90
17988;DHT22;9119;50.932;5.342;2023-01-28T07:39:03;3.40;99.90
17988;DHT22;9119;50.932;5.342;2023-01-28T07:41:29;3.40;99.90
17988;DHT22;9119;50.932;5.342;2023-01-28T07:43:54;3.40;99.90
17988;DHT22;9119;50.932;5.342;2023-01-28T07:46:20;3.50;99.90
17988;DHT22;9119;50.932;5.342;2023-01-28T07:48:46;3.40;99.90
17988;DHT22;9119;50.932;5.342;2023-01-28T07:51:12;3.30;99.90
17988;DHT22;9119;50.932;5.342;2023-01-28T07:53:38;3.20;99.90
17988;DHT22;9119;50.932;5.342;2023-01-28T07:56:04;3.10;99.90
17988;DHT22;9119;50.932;5.342;2023-01-28T07:58:31;3.20;99.90
17988;DHT22;9119;50.932;5.342;2023-01-28T08:00:59;3.10;99.90
17988;DHT22;9119;50.932;5.342;2023-01-28T08:03:25;3.10;99.90
17988;DHT22;9119;50.932;5.342;2023-01-28T08:05:53;3.00;99.90
17988;DHT22;9119;50.932;5.342;2023-01-28T08:08:20;3.10;99.90
17988;DHT22;9119;50.932;5.342;2023-01-28T08:10:47;3.10;99.90
17988;DHT22;9119;50.932;5.342;2023-01-28T08:13:13;3.00;99.90
17988;DHT22;9119;50.932;5.342;2023-01-28T08:15:39;3.00;99.90
17988;DHT22;9119;50.932;5.342;2023-01-28T08:18:06;3.20;99.90
17988;DHT22;9119;50.932;5.342;2023-01-28T08:20:32;3.30;99.90
17988;DHT22;9119;50.932;5.342;2023-01-28T08:23:11;3.50;99.90
17988;DHT22;9119;50.932;5.342;2023-01-28T08:25:37;3.40;99.90
17988;DHT22;9119;50.932;5.342;2023-01-28T08:28:04;3.60;99.90
17988;DHT22;9119;50.932;5.342;2023-01-28T08:30:31;3.60;99.90
17988;DHT22;9119;50.932;5.342;2023-01-28T08:32:58;3.50;99.90
17988;DHT22;9119;50.932;5.342;2023-01-28T08:35:25;3.40;99.90
17988;DHT22;9119;50.932;5.342;2023-01-28T08:37:51;3.20;99.90
17988;DHT22;9119;50.932;5.342;2023-01-28T08:40:18;3.20;99.90
17988;DHT22;9119;50.932;5.342;2023-01-28T08:42:50;3.10;99.90
17988;DHT22;9119;50.932;5.342;2023-01-28T08:45:17;3.10;99.90
17988;DHT22;9119;50.932;5.342;2023-01-28T08:47:51;3.20;99.90
17988;DHT22;9119;50.932;5.342;2023-01-28T08:50:17;3.20;99.90
17988;DHT22;9119;50.932;5.342;2023-01-28T08:52:45;3.20;99.90
17988;DHT22;9119;50.932;5.342;2023-01-28T08:55:11;3.30;99.90
17988;DHT22;9119;50.932;5.342;2023-01-28T08:57:37;3.40;99.90
17988;DHT22;9119;50.932;5.342;2023-01-28T09:00:04;3.30;99.90
17988;DHT22;9119;50.932;5.342;2023-01-28T09:02:29;3.20;99.90
17988;DHT22;9119;50.932;5.342;2023-01-28T09:04:55;3.20;99.90
17988;DHT22;9119;50.932;5.342;2023-01-28T09:07:21;3.00;99.90
17988;DHT22;9119;50.932;5.342;2023-01-28T09:09:47;3.00;99.90
17988;DHT22;9119;50.932;5.342;2023-01-28T09:12:12;2.90;99.90
17988;DHT22;9119;50.932;5.342;2023-01-28T09:14:38;3.00;99.90
17988;DHT22;9119;50.932;5.342;2023-01-28T09:17:04;2.90;99.90
17988;DHT22;9119;50.932;5.342;2023-01-28T09:19:30;2.90;99.90
17988;DHT22;9119;50.932;5.342;2023-01-28T09:21:55;3.10;99.90
17988;DHT22;9119;50.932;5.342;2023-01-28T09:24:21;2.90;99.90
17988;DHT22;9119;50.932;5.342;2023-01-28T09:26:50;3.00;99.90
17988;DHT22;9119;50.932;5.342;2023-01-28T09:29:15;3.00;99.90
17988;DHT22;9119;50.932;5.342;2023-01-28T09:31:42;2.80;99.90
17988;DHT22;9119;50.932;5.342;2023-01-28T09:34:08;2.70;99.90
17988;DHT22;9119;50.932;5.342;2023-01-28T09:36:34;2.80;99.90
17988;DHT22;9119;50.932;5.342;2023-01-28T09:39:00;2.80;99.90
17988;DHT22;9119;50.932;5.342;2023-01-28T09:41:33;2.90;99.90
17988;DHT22;9119;50.932;5.342;2023-01-28T09:46:52;3.00;99.90
17988;DHT22;9119;50.932;5.342;2023-01-28T09:49:34;3.00;99.90
17988;DHT22;9119;50.932;5.342;2023-01-28T09:52:02;3.00;99.90
17988;DHT22;9119;50.932;5.342;2023-01-28T09:54:44;2.90;99.90
17988;DHT22;9119;50.932;5.342;2023-01-28T09:57:19;2.90;99.90
17988;DHT22;9119;50.932;5.342;2023-01-28T09:59:46;3.10;99.90
17988;DHT22;9119;50.932;5.342;2023-01-28T10:05:03;3.10;99.90
17988;DHT22;9119;50.932;5.342;2023-01-28T10:07:46;3.10;99.90
17988;DHT22;9119;50.932;5.342;2023-01-28T10:18:54;3.10;99.90
17988;DHT22;9119;50.932;5.342;2023-01-28T10:21:26;3.20;99.90
17988;DHT22;9119;50.932;5.342;2023-01-28T10:26:37;3.10;99.90
17988;DHT22;9119;50.932;5.342;2023-01-28T10:29:15;3.20;99.90
17988;DHT22;9119;50.932;5.342;2023-01-28T10:31:53;3.30;99.90
17988;DHT22;9119;50.932;5.342;2023-01-28T10:34:20;3.30;99.90
17988;DHT22;9119;50.932;5.342;2023-01-28T10:36:47;3.30;99.90
17988;DHT22;9119;50.932;5.342;2023-01-28T10:39:14;3.30;99.90
17988;DHT22;9119;50.932;5.342;2023-01-28T10:41:41;3.20;99.90
17988;DHT22;9119;50.932;5.342;2023-01-28T10:44:15;3.20;99.90
17988;DHT22;9119;50.932;5.342;2023-01-28T10:46:44;3.20;99.90
17988;DHT22;9119;50.932;5.342;2023-01-28T10:49:20;3.60;99.90
17988;DHT22;9119;50.932;5.342;2023-01-28T10:51:47;3.50;99.90
17988;DHT22;9119;50.932;5.342;2023-01-28T10:54:24;3.60;99.90
17988;DHT22;9119;50.932;5.342;2023-01-28T10:56:53;3.60;99.90
17988;DHT22;9119;50.932;5.342;2023-01-28T10:59:26;3.50;99.90
17988;DHT22;9119;50.932;5.342;2023-01-28T11:02:35;3.60;99.90
17988;DHT22;9119;50.932;5.342;2023-01-28T11:04:42;3.60;99.90
17988;DHT22;9119;50.932;5.342;2023-01-28T11:07:19;3.60;99.90
17988;DHT22;9119;50.932;5.342;2023-01-28T11:09:51;3.50;99.90
17988;DHT22;9119;50.932;5.342;2023-01-28T11:12:25;3.50;99.90
17988;DHT22;9119;50.932;5.342;2023-01-28T11:14:56;3.60;99.90
17988;DHT22;9119;50.932;5.342;2023-01-28T11:17:33;3.50;99.90
17988;DHT22;9119;50.932;5.342;2023-01-28T11:20:08;3.30;99.90
17988;DHT22;9119;50.932;5.342;2023-01-28T11:22:43;3.60;99.90
17988;DHT22;9119;50.932;5.342;2023-01-28T11:25:32;3.60;99.90
17988;DHT22;9119;50.932;5.342;2023-01-28T11:28:00;3.40;99.90
17988;DHT22;9119;50.932;5.342;2023-01-28T11:30:37;3.60;99.90
17988;DHT22;9119;50.932;5.342;2023-01-28T11:35:55;3.40;99.90
17988;DHT22;9119;50.932;5.342;2023-01-28T11:38:23;3.50;99.90
17988;DHT22;9119;50.932;5.342;2023-01-28T11:40:50;3.60;99.90
17988;DHT22;9119;50.932;5.342;2023-01-28T11:43:20;3.40;99.90
17988;DHT22;9119;50.932;5.342;2023-01-28T11:46:07;3.50;99.90
17988;DHT22;9119;50.932;5.342;2023-01-28T11:53:52;3.10;99.90
17988;DHT22;9119;50.932;5.342;2023-01-28T12:02:05;3.00;99.90
17988;DHT22;9119;50.932;5.342;2023-01-28T12:07:46;3.30;99.90
17988;DHT22;9119;50.932;5.342;2023-01-28T12:19:15;3.10;99.90
17988;DHT22;9119;50.932;5.342;2023-01-28T12:21:48;3.00;99.90
17988;DHT22;9119;50.932;5.342;2023-01-28T12:24:46;3.00;99.90
17988;DHT22;9119;50.932;5.342;2023-01-28T12:27:43;3.10;99.90
17988;DHT22;9119;50.932;5.342;2023-01-28T12:43:59;3.60;99.90
17988;DHT22;9119;50.932;5.342;2023-01-28T12:46:39;3.70;99.90
17988;DHT22;9119;50.932;5.342;2023-01-28T12:49:34;3.70;99.90
17988;DHT22;9119;50.932;5.342;2023-01-28T12:52:21;3.60;99.90
17988;DHT22;9119;50.932;5.342;2023-01-28T12:55:10;3.60;99.90
17988;DHT22;9119;50.932;5.342;2023-01-28T12:57:37;3.50;99.90
17988;DHT22;9119;50.932;5.342;2023-01-28T13:05:35;3.90;99.90
17988;DHT22;9119;50.932;5.342;2023-01-28T13:08:24;4.10;99.90
17988;DHT22;9119;50.932;5.342;2023-01-28T13:10:51;4.10;99.90
17988;DHT22;9119;50.932;5.342;2023-01-28T13:13:26;3.80;99.90
17988;DHT22;9119;50.932;5.342;2023-01-28T13:15:52;3.70;99.90
17988;DHT22;9119;50.932;5.342;2023-01-28T13:20:56;3.70;99.90
17988;DHT22;9119;50.932;5.342;2023-01-28T13:28:48;3.60;99.90
17988;DHT22;9119;50.932;5.342;2023-01-28T13:31:22;3.70;99.90
17988;DHT22;9119;50.932;5.342;2023-01-28T13:34:02;3.70;99.90
17988;DHT22;9119;50.932;5.342;2023-01-28T13:36:36;3.70;99.90
17988;DHT22;9119;50.932;5.342;2023-01-28T13:39:07;3.80;99.90
17988;DHT22;9119;50.932;5.342;2023-01-28T13:42:08;3.80;99.90
17988;DHT22;9119;50.932;5.342;2023-01-28T13:44:35;4.00;99.90
17988;DHT22;9119;50.932;5.342;2023-01-28T13:49:36;3.70;99.90
17988;DHT22;9119;50.932;5.342;2023-01-28T13:54:37;3.40;99.90
17988;DHT22;9119;50.932;5.342;2023-01-28T14:14:08;3.60;99.90
17988;DHT22;9119;50.932;5.342;2023-01-28T14:19:20;3.80;99.90
17988;DHT22;9119;50.932;5.342;2023-01-28T14:21:50;3.80;99.90
17988;DHT22;9119;50.932;5.342;2023-01-28T14:24:16;3.80;99.90
17988;DHT22;9119;50.932;5.342;2023-01-28T14:32:16;3.30;99.90
17988;DHT22;9119;50.932;5.342;2023-01-28T14:34:44;3.40;99.90
17988;DHT22;9119;50.932;5.342;2023-01-28T14:37:16;3.50;99.90
17988;DHT22;9119;50.932;5.342;2023-01-28T14:39:47;3.60;99.90
17988;DHT22;9119;50.932;5.342;2023-01-28T14:42:22;3.70;99.90
17988;DHT22;9119;50.932;5.342;2023-01-28T14:45:06;3.50;99.90
17988;DHT22;9119;50.932;5.342;2023-01-28T14:53:52;3.50;99.90
17988;DHT22;9119;50.932;5.342;2023-01-28T14:56:35;3.50;99.90
17988;DHT22;9119;50.932;5.342;2023-01-28T14:59:24;3.30;99.90
17988;DHT22;9119;50.932;5.342;2023-01-28T15:01:55;3.40;99.90
17988;DHT22;9119;50.932;5.342;2023-01-28T15:04:29;3.40;99.90
17988;DHT22;9119;50.932;5.342;2023-01-28T15:06:55;3.40;99.90
17988;DHT22;9119;50.932;5.342;2023-01-28T15:09:22;3.30;99.90
17988;DHT22;9119;50.932;5.342;2023-01-28T15:11:52;3.30;99.90
17988;DHT22;9119;50.932;5.342;2023-01-28T15:14:28;3.40;99.90
17988;DHT22;9119;50.932;5.342;2023-01-28T15:16:55;3.40;99.90
17988;DHT22;9119;50.932;5.342;2023-01-28T15:19:32;3.40;99.90
17988;DHT22;9119;50.932;5.342;2023-01-28T15:22:01;3.40;99.90
17988;DHT22;9119;50.932;5.342;2023-01-28T15:24:33;3.40;99.90
17988;DHT22;9119;50.932;5.342;2023-01-28T15:26:59;3.40;99.90
17988;DHT22;9119;50.932;5.342;2023-01-28T15:29:34;3.40;99.90
17988;DHT22;9119;50.932;5.342;2023-01-28T15:32:02;3.30;99.90
17988;DHT22;9119;50.932;5.342;2023-01-28T15:34:28;3.20;99.90
17988;DHT22;9119;50.932;5.342;2023-01-28T15:36:56;3.30;99.90
17988;DHT22;9119;50.932;5.342;2023-01-28T15:39:23;3.20;99.90
17988;DHT22;9119;50.932;5.342;2023-01-28T15:44:28;3.20;99.90
17988;DHT22;9119;50.932;5.342;2023-01-28T15:46:59;3.20;99.90
17988;DHT22;9119;50.932;5.342;2023-01-28T15:49:31;3.30;99.90
17988;DHT22;9119;50.932;5.342;2023-01-28T15:51:58;3.20;99.90
17988;DHT22;9119;50.932;5.342;2023-01-28T15:54:24;3.20;99.90
17988;DHT22;9119;50.932;5.342;2023-01-28T15:56:51;3.20;99.90
17988;DHT22;9119;50.932;5.342;2023-01-28T16:01:48;3.10;99.90
17988;DHT22;9119;50.932;5.342;2023-01-28T16:04:23;3.10;99.90
17988;DHT22;9119;50.932;5.342;2023-01-28T16:06:49;3.30;99.90
17988;DHT22;9119;50.932;5.342;2023-01-28T16:09:28;3.10;99.90
17988;DHT22;9119;50.932;5.342;2023-01-28T16:12:06;3.00;99.90
17988;DHT22;9119;50.932;5.342;2023-01-28T16:17:01;3.30;99.90
17988;DHT22;9119;50.932;5.342;2023-01-28T16:19:40;3.10;99.90
17988;DHT22;9119;50.932;5.342;2023-01-28T16:22:07;3.00;99.90
17988;DHT22;9119;50.932;5.342;2023-01-28T16:24:47;3.00;99.90
17988;DHT22;9119;50.932;5.342;2023-01-28T16:27:23;2.90;99.90
17988;DHT22;9119;50.932;5.342;2023-01-28T16:29:49;2.90;99.90
17988;DHT22;9119;50.932;5.342;2023-01-28T16:34:54;2.90;99.90
17988;DHT22;9119;50.932;5.342;2023-01-28T16:37:20;2.80;99.90
17988;DHT22;9119;50.932;5.342;2023-01-28T16:39:47;2.60;99.90
17988;DHT22;9119;50.932;5.342;2023-01-28T16:42:13;2.50;99.90
17988;DHT22;9119;50.932;5.342;2023-01-28T16:44:38;2.40;99.90
17988;DHT22;9119;50.932;5.342;2023-01-28T16:47:04;2.70;99.90
17988;DHT22;9119;50.932;5.342;2023-01-28T16:49:30;2.50;99.90
17988;DHT22;9119;50.932;5.342;2023-01-28T16:51:56;2.60;99.90
17988;DHT22;9119;50.932;5.342;2023-01-28T16:54:21;2.60;99.90
17988;DHT22;9119;50.932;5.342;2023-01-28T16:56:47;2.70;99.90
17988;DHT22;9119;50.932;5.342;2023-01-28T16:59:14;2.50;99.90
17988;DHT22;9119;50.932;5.342;2023-01-28T17:01:44;2.50;99.90
17988;DHT22;9119;50.932;5.342;2023-01-28T17:04:10;2.30;99.90
17988;DHT22;9119;50.932;5.342;2023-01-28T17:06:36;2.20;99.90
17988;DHT22;9119;50.932;5.342;2023-01-28T17:09:07;2.40;99.90
17988;DHT22;9119;50.932;5.342;2023-01-28T17:11:33;2.30;99.90
17988;DHT22;9119;50.932;5.342;2023-01-28T17:14:00;2.40;99.90
17988;DHT22;9119;50.932;5.342;2023-01-28T17:16:26;2.40;99.90
17988;DHT22;9119;50.932;5.342;2023-01-28T17:18:52;2.60;99.90
17988;DHT22;9119;50.932;5.342;2023-01-28T17:21:19;2.50;99.90
17988;DHT22;9119;50.932;5.342;2023-01-28T17:23:44;2.50;99.90
17988;DHT22;9119;50.932;5.342;2023-01-28T17:26:12;2.50;99.90
17988;DHT22;9119;50.932;5.342;2023-01-28T17:28:38;2.50;99.90
17988;DHT22;9119;50.932;5.342;2023-01-28T17:31:06;2.50;99.90
17988;DHT22;9119;50.932;5.342;2023-01-28T17:33:32;2.50;99.90
17988;DHT22;9119;50.932;5.342;2023-01-28T17:35:59;2.40;99.90
17988;DHT22;9119;50.932;5.342;2023-01-28T17:38:24;2.40;99.90
17988;DHT22;9119;50.932;5.342;2023-01-28T17:40:50;2.50;99.90
17988;DHT22;9119;50.932;5.342;2023-01-28T17:43:16;2.50;99.90
17988;DHT22;9119;50.932;5.342;2023-01-28T17:45:41;2.40;99.90
17988;DHT22;9119;50.932;5.342;2023-01-28T17:48:07;2.50;99.90
17988;DHT22;9119;50.932;5.342;2023-01-28T17:50:33;2.40;99.90
17988;DHT22;9119;50.932;5.342;2023-01-28T17:52:58;2.50;99.90
17988;DHT22;9119;50.932;5.342;2023-01-28T17:55:24;2.40;99.90
17988;DHT22;9119;50.932;5.342;2023-01-28T17:57:50;2.40;99.90
17988;DHT22;9119;50.932;5.342;2023-01-28T18:00:17;2.30;99.90
17988;DHT22;9119;50.932;5.342;2023-01-28T18:02:43;2.30;99.90
17988;DHT22;9119;50.932;5.342;2023-01-28T18:05:09;2.40;99.90
17988;DHT22;9119;50.932;5.342;2023-01-28T18:07:34;2.20;99.90
17988;DHT22;9119;50.932;5.342;2023-01-28T18:10:00;2.20;99.90
17988;DHT22;9119;50.932;5.342;2023-01-28T18:12:26;2.30;99.90
17988;DHT22;9119;50.932;5.342;2023-01-28T18:14:51;2.30;99.90
17988;DHT22;9119;50.932;5.342;2023-01-28T18:17:17;2.20;99.90
17988;DHT22;9119;50.932;5.342;2023-01-28T18:19:43;2.20;99.90
17988;DHT22;9119;50.932;5.342;2023-01-28T18:22:08;2.30;99.90
17988;DHT22;9119;50.932;5.342;2023-01-28T18:24:34;2.20;99.90
17988;DHT22;9119;50.932;5.342;2023-01-28T18:27:00;2.00;99.90
17988;DHT22;9119;50.932;5.342;2023-01-28T18:29:28;2.00;99.90
17988;DHT22;9119;50.932;5.342;2023-01-28T18:31:55;2.10;99.90
17988;DHT22;9119;50.932;5.342;2023-01-28T18:34:23;2.20;99.90
17988;DHT22;9119;50.932;5.342;2023-01-28T18:36:49;2.10;99.90
17988;DHT22;9119;50.932;5.342;2023-01-28T18:39:16;2.20;99.90